sensor_id;sensor_type;location;lat;lon;timestamp;temperature;humidity
11246;DHT22;59870;50.106;8.580;2023-03-25T00:01:55;13.50;87.20
11246;DHT22;59870;50.106;8.580;2023-03-25T00:06:30;13.60;87.20
11246;DHT22;59870;50.106;8.580;2023-03-25T00:25:50;13.40;86.40
11246;DHT22;59870;50.106;8.580;2023-03-25T00:29:44;13.30;85.60
11246;DHT22;59870;50.106;8.580;2023-03-25T00:38:32;13.50;86.90
11246;DHT22;59870;50.106;8.580;2023-03-25T01:00:17;12.90;88.40
11246;DHT22;59870;50.106;8.580;2023-03-25T01:03:35;12.90;88.40
11246;DHT22;59870;50.106;8.580;2023-03-25T01:07:48;12.50;87.80
11246;DHT22;59870;50.106;8.580;2023-03-25T01:15:20;12.50;87.90
11246;DHT22;59870;50.106;8.580;2023-03-25T01:19:18;12.40;87.80
11246;DHT22;59870;50.106;8.580;2023-03-25T01:23:14;12.80;88.20
11246;DHT22;59870;50.106;8.580;2023-03-25T01:34:54;12.90;88.50
11246;DHT22;59870;50.106;8.580;2023-03-25T01:42:49;12.80;88.50
11246;DHT22;59870;50.106;8.580;2023-03-25T01:47:08;12.40;88.20
11246;DHT22;59870;50.106;8.580;2023-03-25T01:54:57;12.60;88.50
11246;DHT22;59870;50.106;8.580;2023-03-25T02:06:47;12.80;89.10
11246;DHT22;59870;50.106;8.580;2023-03-25T03:24:15;12.90;90.30
11246;DHT22;59870;50.106;8.580;2023-03-25T03:48:48;13.20;89.60
11246;DHT22;59870;50.106;8.580;2023-03-25T04:28:45;12.60;90.10
11246;DHT22;59870;50.106;8.580;2023-03-25T04:58:44;12.50;90.00
11246;DHT22;59870;50.106;8.580;2023-03-25T05:01:27;12.50;89.80
11246;DHT22;59870;50.106;8.580;2023-03-25T05:24:14;12.60;88.70
11246;DHT22;59870;50.106;8.580;2023-03-25T05:31:35;12.60;89.00
11246;DHT22;59870;50.106;8.580;2023-03-25T05:34:03;12.90;89.50
11246;DHT22;59870;50.106;8.580;2023-03-25T06:02:56;12.60;90.10
11246;DHT22;59870;50.106;8.580;2023-03-25T06:06:54;12.80;89.80
11246;DHT22;59870;50.106;8.580;2023-03-25T06:16:03;12.30;90.00
11246;DHT22;59870;50.106;8.580;2023-03-25T06:20:17;13.10;90.10
11246;DHT22;59870;50.106;8.580;2023-03-25T06:24:38;12.60;89.80
11246;DHT22;59870;50.106;8.580;2023-03-25T06:35:07;13.00;89.90
11246;DHT22;59870;50.106;8.580;2023-03-25T06:38:17;13.00;89.90
11246;DHT22;59870;50.106;8.580;2023-03-25T06:41:42;13.10;89.60
11246;DHT22;59870;50.106;8.580;2023-03-25T06:44:55;13.20;88.60
11246;DHT22;59870;50.106;8.580;2023-03-25T06:49:35;13.20;88.80
11246;DHT22;59870;50.106;8.580;2023-03-25T08:05:46;15.70;81.90
11246;DHT22;59870;50.106;8.580;2023-03-25T08:08:14;16.00;79.90
11246;DHT22;59870;50.106;8.580;2023-03-25T08:10:43;16.10;77.90
11246;DHT22;59870;50.106;8.580;2023-03-25T08:13:13;16.40;78.80
11246;DHT22;59870;50.106;8.580;2023-03-25T08:15:40;16.50;77.30
11246;DHT22;59870;50.106;8.580;2023-03-25T08:18:07;16.60;78.30
11246;DHT22;59870;50.106;8.580;2023-03-25T08:20:35;16.70;77.50
11246;DHT22;59870;50.106;8.580;2023-03-25T08:23:03;16.60;76.50
11246;DHT22;59870;50.106;8.580;2023-03-25T08:25:38;16.80;75.40
11246;DHT22;59870;50.106;8.580;2023-03-25T08:28:05;16.70;75.40
11246;DHT22;59870;50.106;8.580;2023-03-25T08:30:35;16.80;75.90
11246;DHT22;59870;50.106;8.580;2023-03-25T08:33:07;16.70;77.20
11246;DHT22;59870;50.106;8.580;2023-03-25T08:35:38;16.80;75.90
11246;DHT22;59870;50.106;8.580;2023-03-25T08:38:06;16.80;75.40
11246;DHT22;59870;50.106;8.580;2023-03-25T08:40:35;17.00;74.90
11246;DHT22;59870;50.106;8.580;2023-03-25T08:43:03;16.80;74.80
11246;DHT22;59870;50.106;8.580;2023-03-25T08:45:32;16.90;74.00
11246;DHT22;59870;50.106;8.580;2023-03-25T08:48:02;16.80;73.50
11246;DHT22;59870;50.106;8.580;2023-03-25T08:50:30;16.80;73.40
11246;DHT22;59870;50.106;8.580;2023-03-25T08:52:58;16.80;73.90
11246;DHT22;59870;50.106;8.580;2023-03-25T08:55:26;16.80;74.80
11246;DHT22;59870;50.106;8.580;2023-03-25T08:57:53;16.90;74.10
11246;DHT22;59870;50.106;8.580;2023-03-25T09:00:21;16.90;73.80
11246;DHT22;59870;50.106;8.580;2023-03-25T09:02:52;16.90;73.60
11246;DHT22;59870;50.106;8.580;2023-03-25T09:05:19;16.90;73.90
11246;DHT22;59870;50.106;8.580;2023-03-25T09:07:47;17.20;73.70
11246;DHT22;59870;50.106;8.580;2023-03-25T09:10:14;16.90;72.70
11246;DHT22;59870;50.106;8.580;2023-03-25T09:12:43;16.90;73.00
11246;DHT22;59870;50.106;8.580;2023-03-25T09:15:11;16.90;73.40
11246;DHT22;59870;50.106;8.580;2023-03-25T09:17:39;16.90;72.60
11246;DHT22;59870;50.106;8.580;2023-03-25T09:20:09;17.10;72.00
11246;DHT22;59870;50.106;8.580;2023-03-25T09:22:38;16.90;71.90
11246;DHT22;59870;50.106;8.580;2023-03-25T09:25:07;17.00;73.60
11246;DHT22;59870;50.106;8.580;2023-03-25T09:27:35;16.90;73.00
11246;DHT22;59870;50.106;8.580;2023-03-25T09:30:04;16.90;73.80
11246;DHT22;59870;50.106;8.580;2023-03-25T09:32:33;17.10;73.00
11246;DHT22;59870;50.106;8.580;2023-03-25T09:35:00;17.50;72.90
11246;DHT22;59870;50.106;8.580;2023-03-25T09:37:30;17.70;72.60
11246;DHT22;59870;50.106;8.580;2023-03-25T09:39:57;17.80;72.00
11246;DHT22;59870;50.106;8.580;2023-03-25T09:47:39;17.70;71.50
11246;DHT22;59870;50.106;8.580;2023-03-25T09:50:12;17.70;71.60
11246;DHT22;59870;50.106;8.580;2023-03-25T09:52:57;17.70;72.90
11246;DHT22;59870;50.106;8.580;2023-03-25T09:55:32;17.10;71.20
11246;DHT22;59870;50.106;8.580;2023-03-25T10:01:18;16.40;73.80
11246;DHT22;59870;50.106;8.580;2023-03-25T10:04:33;16.10;74.90
11246;DHT22;59870;50.106;8.580;2023-03-25T10:07:43;16.00;76.60
11246;DHT22;59870;50.106;8.580;2023-03-25T10:10:43;15.80;78.20
11246;DHT22;59870;50.106;8.580;2023-03-25T10:13:49;15.70;79.40
11246;DHT22;59870;50.106;8.580;2023-03-25T10:17:08;15.60;81.20
11246;DHT22;59870;50.106;8.580;2023-03-25T10:22:31;15.70;81.70
11246;DHT22;59870;50.106;8.580;2023-03-25T10:25:04;15.90;81.50
11246;DHT22;59870;50.106;8.580;2023-03-25T10:35:39;15.40;83.60
11246;DHT22;59870;50.106;8.580;2023-03-25T10:39:33;15.50;83.50
11246;DHT22;59870;50.106;8.580;2023-03-25T10:43:52;15.70;86.40
11246;DHT22;59870;50.106;8.580;2023-03-25T10:48:56;15.60;86.10
11246;DHT22;59870;50.106;8.580;2023-03-25T10:51:33;15.60;84.60
11246;DHT22;59870;50.106;8.580;2023-03-25T10:54:02;15.70;82.90
11246;DHT22;59870;50.106;8.580;2023-03-25T10:56:34;15.70;83.00
11246;DHT22;59870;50.106;8.580;2023-03-25T10:59:16;15.70;82.20
11246;DHT22;59870;50.106;8.580;2023-03-25T11:01:46;15.70;82.40
11246;DHT22;59870;50.106;8.580;2023-03-25T11:04:34;15.80;82.80
11246;DHT22;59870;50.106;8.580;2023-03-25T11:07:15;16.10;81.60
11246;DHT22;59870;50.106;8.580;2023-03-25T11:09:44;16.10;80.10
11246;DHT22;59870;50.106;8.580;2023-03-25T11:12:17;16.00;80.30
11246;DHT22;59870;50.106;8.580;2023-03-25T11:14:55;16.10;79.90
11246;DHT22;59870;50.106;8.580;2023-03-25T11:17:27;16.20;77.30
11246;DHT22;59870;50.106;8.580;2023-03-25T11:19:58;16.10;79.20
11246;DHT22;59870;50.106;8.580;2023-03-25T11:22:53;16.40;78.70
11246;DHT22;59870;50.106;8.580;2023-03-25T11:25:29;16.30;79.20
11246;DHT22;59870;50.106;8.580;2023-03-25T11:27:58;16.50;77.90
11246;DHT22;59870;50.106;8.580;2023-03-25T11:30:28;16.60;77.00
11246;DHT22;59870;50.106;8.580;2023-03-25T11:33:12;16.70;75.20
11246;DHT22;59870;50.106;8.580;2023-03-25T11:35:44;16.50;74.80
11246;DHT22;59870;50.106;8.580;2023-03-25T11:38:19;16.80;76.30
11246;DHT22;59870;50.106;8.580;2023-03-25T11:40:51;16.90;70.40
11246;DHT22;59870;50.106;8.580;2023-03-25T11:43:22;16.90;70.60
11246;DHT22;59870;50.106;8.580;2023-03-25T11:45:52;16.80;71.90
11246;DHT22;59870;50.106;8.580;2023-03-25T11:48:30;16.80;70.20
11246;DHT22;59870;50.106;8.580;2023-03-25T11:51:22;17.20;72.70
11246;DHT22;59870;50.106;8.580;2023-03-25T11:53:56;17.20;68.10
11246;DHT22;59870;50.106;8.580;2023-03-25T11:56:33;17.10;68.90
11246;DHT22;59870;50.106;8.580;2023-03-25T11:59:01;17.20;68.50
11246;DHT22;59870;50.106;8.580;2023-03-25T12:01:50;17.30;68.30
11246;DHT22;59870;50.106;8.580;2023-03-25T12:04:23;17.30;68.30
11246;DHT22;59870;50.106;8.580;2023-03-25T12:06:59;17.30;65.10
11246;DHT22;59870;50.106;8.580;2023-03-25T12:09:29;17.40;65.40
11246;DHT22;59870;50.106;8.580;2023-03-25T12:14:54;17.60;64.80
11246;DHT22;59870;50.106;8.580;2023-03-25T12:17:50;17.70;66.30
11246;DHT22;59870;50.106;8.580;2023-03-25T12:20:39;17.80;65.70
11246;DHT22;59870;50.106;8.580;2023-03-25T12:27:08;17.90;60.30
11246;DHT22;59870;50.106;8.580;2023-03-25T12:47:41;18.20;61.40
11246;DHT22;59870;50.106;8.580;2023-03-25T13:03:32;18.40;60.80
11246;DHT22;59870;50.106;8.580;2023-03-25T13:09:02;18.80;61.50
11246;DHT22;59870;50.106;8.580;2023-03-25T13:26:01;18.30;65.70
11246;DHT22;59870;50.106;8.580;2023-03-25T14:27:35;17.70;58.20
11246;DHT22;59870;50.106;8.580;2023-03-25T14:31:27;17.60;56.80
11246;DHT22;59870;50.106;8.580;2023-03-25T14:37:44;17.40;57.40
11246;DHT22;59870;50.106;8.580;2023-03-25T14:40:51;17.40;57.50
11246;DHT22;59870;50.106;8.580;2023-03-25T14:43:37;17.00;57.00
11246;DHT22;59870;50.106;8.580;2023-03-25T14:53:08;17.80;56.90
11246;DHT22;59870;50.106;8.580;2023-03-25T15:21:25;17.60;56.10
11246;DHT22;59870;50.106;8.580;2023-03-25T15:56:39;17.50;54.20
11246;DHT22;59870;50.106;8.580;2023-03-25T16:08:18;17.30;56.10
11246;DHT22;59870;50.106;8.580;2023-03-25T16:11:24;17.20;56.20
11246;DHT22;59870;50.106;8.580;2023-03-25T16:31:32;17.10;56.80
11246;DHT22;59870;50.106;8.580;2023-03-25T16:34:13;17.00;57.00
11246;DHT22;59870;50.106;8.580;2023-03-25T16:36:44;17.00;56.80
11246;DHT22;59870;50.106;8.580;2023-03-25T16:39:15;17.10;57.20
11246;DHT22;59870;50.106;8.580;2023-03-25T16:41:48;17.00;56.80
11246;DHT22;59870;50.106;8.580;2023-03-25T16:44:22;16.50;56.20
11246;DHT22;59870;50.106;8.580;2023-03-25T16:46:51;16.90;56.80
11246;DHT22;59870;50.106;8.580;2023-03-25T16:49:31;17.20;57.40
11246;DHT22;59870;50.106;8.580;2023-03-25T16:52:03;16.90;56.50
11246;DHT22;59870;50.106;8.580;2023-03-25T16:54:44;17.10;56.60
11246;DHT22;59870;50.106;8.580;2023-03-25T16:57:17;16.80;56.90
11246;DHT22;59870;50.106;8.580;2023-03-25T16:59:46;17.10;56.60
11246;DHT22;59870;50.106;8.580;2023-03-25T17:02:27;16.70;57.00
11246;DHT22;59870;50.106;8.580;2023-03-25T17:05:29;16.70;57.10
11246;DHT22;59870;50.106;8.580;2023-03-25T17:08:04;16.70;57.20
11246;DHT22;59870;50.106;8.580;2023-03-25T17:11:01;16.60;57.20
11246;DHT22;59870;50.106;8.580;2023-03-25T17:13:43;16.60;57.60
11246;DHT22;59870;50.106;8.580;2023-03-25T17:16:12;16.50;57.40
11246;DHT22;59870;50.106;8.580;2023-03-25T17:18:39;16.60;57.50
11246;DHT22;59870;50.106;8.580;2023-03-25T17:21:11;16.50;57.50
11246;DHT22;59870;50.106;8.580;2023-03-25T17:23:46;16.50;57.90
11246;DHT22;59870;50.106;8.580;2023-03-25T17:26:17;16.40;58.00
11246;DHT22;59870;50.106;8.580;2023-03-25T17:31:38;16.50;57.70
11246;DHT22;59870;50.106;8.580;2023-03-25T17:34:12;16.40;57.80
11246;DHT22;59870;50.106;8.580;2023-03-25T17:36:45;16.30;57.90
11246;DHT22;59870;50.106;8.580;2023-03-25T17:39:24;16.30;57.90
11246;DHT22;59870;50.106;8.580;2023-03-25T17:42:00;16.30;59.00
11246;DHT22;59870;50.106;8.580;2023-03-25T17:44:36;16.20;58.30
11246;DHT22;59870;50.106;8.580;2023-03-25T17:47:05;16.20;58.30
11246;DHT22;59870;50.106;8.580;2023-03-25T17:49:35;16.20;58.90
11246;DHT22;59870;50.106;8.580;2023-03-25T17:52:07;16.10;59.40
11246;DHT22;59870;50.106;8.580;2023-03-25T17:54:41;16.10;59.60
11246;DHT22;59870;50.106;8.580;2023-03-25T17:57:19;16.20;59.60
11246;DHT22;59870;50.106;8.580;2023-03-25T17:59:50;16.00;59.80
11246;DHT22;59870;50.106;8.580;2023-03-25T18:02:18;16.00;59.70
11246;DHT22;59870;50.106;8.580;2023-03-25T18:04:46;15.90;59.80
11246;DHT22;59870;50.106;8.580;2023-03-25T18:07:15;15.90;60.10
11246;DHT22;59870;50.106;8.580;2023-03-25T18:09:44;16.20;60.70
11246;DHT22;59870;50.106;8.580;2023-03-25T18:12:13;15.90;60.80
11246;DHT22;59870;50.106;8.580;2023-03-25T18:14:43;15.40;60.80
11246;DHT22;59870;50.106;8.580;2023-03-25T18:17:14;16.00;61.80
11246;DHT22;59870;50.106;8.580;2023-03-25T18:19:45;15.70;62.80
11246;DHT22;59870;50.106;8.580;2023-03-25T18:22:14;15.40;63.50
11246;DHT22;59870;50.106;8.580;2023-03-25T18:24:47;15.60;64.50
11246;DHT22;59870;50.106;8.580;2023-03-25T18:27:15;15.60;65.60
11246;DHT22;59870;50.106;8.580;2023-03-25T18:29:43;15.70;66.50
11246;DHT22;59870;50.106;8.580;2023-03-25T18:32:12;15.30;67.10
11246;DHT22;59870;50.106;8.580;2023-03-25T18:34:40;15.50;67.80
11246;DHT22;59870;50.106;8.580;2023-03-25T18:37:09;15.10;68.00
11246;DHT22;59870;50.106;8.580;2023-03-25T18:39:37;15.00;68.80
11246;DHT22;59870;50.106;8.580;2023-03-25T18:42:05;14.90;69.20
11246;DHT22;59870;50.106;8.580;2023-03-25T18:44:33;14.80;70.20
11246;DHT22;59870;50.106;8.580;2023-03-25T18:47:01;14.50;69.70
11246;DHT22;59870;50.106;8.580;2023-03-25T18:49:32;15.00;71.40
11246;DHT22;59870;50.106;8.580;2023-03-25T18:52:00;14.60;71.30
11246;DHT22;59870;50.106;8.580;2023-03-25T18:54:29;14.60;71.80
11246;DHT22;59870;50.106;8.580;2023-03-25T18:56:56;14.50;72.60
11246;DHT22;59870;50.106;8.580;2023-03-25T18:59:25;14.50;72.30
11246;DHT22;59870;50.106;8.580;2023-03-25T19:01:52;14.40;72.50
11246;DHT22;59870;50.106;8.580;2023-03-25T19:04:19;14.70;72.70
11246;DHT22;59870;50.106;8.580;2023-03-25T19:06:47;14.40;73.00
11246;DHT22;59870;50.106;8.580;2023-03-25T19:09:15;14.30;73.10
11246;DHT22;59870;50.106;8.580;2023-03-25T19:11:48;14.20;73.40
11246;DHT22;59870;50.106;8.580;2023-03-25T19:14:16;14.20;73.40
11246;DHT22;59870;50.106;8.580;2023-03-25T19:16:43;14.20;73.20
11246;DHT22;59870;50.106;8.580;2023-03-25T19:19:29;14.20;73.70
11246;DHT22;59870;50.106;8.580;2023-03-25T19:21:57;14.60;74.20
11246;DHT22;59870;50.106;8.580;2023-03-25T19:24:24;14.10;73.80
11246;DHT22;59870;50.106;8.580;2023-03-25T19:26:52;14.10;74.30
11246;DHT22;59870;50.106;8.580;2023-03-25T19:29:20;14.00;74.40
11246;DHT22;59870;50.106;8.580;2023-03-25T19:31:47;14.00;74.50
11246;DHT22;59870;50.106;8.580;2023-03-25T19:34:15;13.90;74.50
11246;DHT22;59870;50.106;8.580;2023-03-25T19:36:42;13.90;74.80
11246;DHT22;59870;50.106;8.580;2023-03-25T19:39:12;13.90;75.20
11246;DHT22;59870;50.106;8.580;2023-03-25T19:41:40;13.80;75.60
11246;DHT22;59870;50.106;8.580;2023-03-25T19:44:09;13.80;75.70
11246;DHT22;59870;50.106;8.580;2023-03-25T19:46:37;13.70;76.00
11246;DHT22;59870;50.106;8.580;2023-03-25T19:49:04;13.70;76.10
11246;DHT22;59870;50.106;8.580;2023-03-25T19:51:32;13.70;76.50
11246;DHT22;59870;50.106;8.580;2023-03-25T19:54:01;13.70;76.40
11246;DHT22;59870;50.106;8.580;2023-03-25T19:56:29;13.60;76.50
11246;DHT22;59870;50.106;8.580;2023-03-25T19:58:56;13.60;76.60
11246;DHT22;59870;50.106;8.580;2023-03-25T20:01:24;13.60;77.10
11246;DHT22;59870;50.106;8.580;2023-03-25T20:03:53;13.60;77.00
11246;DHT22;59870;50.106;8.580;2023-03-25T20:06:20;13.50;77.40
11246;DHT22;59870;50.106;8.580;2023-03-25T20:08:49;13.50;77.60
11246;DHT22;59870;50.106;8.580;2023-03-25T20:11:17;13.50;78.10
11246;DHT22;59870;50.106;8.580;2023-03-25T20:13:44;13.40;78.00
11246;DHT22;59870;50.106;8.580;2023-03-25T20:16:12;13.40;77.80
11246;DHT22;59870;50.106;8.580;2023-03-25T20:18:40;13.50;78.00
11246;DHT22;59870;50.106;8.580;2023-03-25T20:21:08;13.40;77.60
11246;DHT22;59870;50.106;8.580;2023-03-25T20:23:36;13.40;78.10
11246;DHT22;59870;50.106;8.580;2023-03-25T20:26:03;13.40;77.80
11246;DHT22;59870;50.106;8.580;2023-03-25T20:28:31;13.40;78.10
11246;DHT22;59870;50.106;8.580;2023-03-25T20:31:00;13.40;78.40
11246;DHT22;59870;50.106;8.580;2023-03-25T20:33:37;13.30;78.40
11246;DHT22;59870;50.106;8.580;2023-03-25T20:36:06;13.30;78.20
11246;DHT22;59870;50.106;8.580;2023-03-25T20:38:33;13.30;78.50
11246;DHT22;59870;50.106;8.580;2023-03-25T20:41:05;13.40;78.50
11246;DHT22;59870;50.106;8.580;2023-03-25T20:43:33;13.30;78.70
11246;DHT22;59870;50.106;8.580;2023-03-25T20:46:01;13.30;79.00
11246;DHT22;59870;50.106;8.580;2023-03-25T20:48:30;13.30;79.10
11246;DHT22;59870;50.106;8.580;2023-03-25T20:51:03;13.60;79.40
11246;DHT22;59870;50.106;8.580;2023-03-25T21:02:10;12.80;78.40
11246;DHT22;59870;50.106;8.580;2023-03-25T21:09:43;13.60;79.10
11246;DHT22;59870;50.106;8.580;2023-03-25T21:14:05;13.30;79.20
11246;DHT22;59870;50.106;8.580;2023-03-25T21:18:08;13.50;79.60
11246;DHT22;59870;50.106;8.580;2023-03-25T21:44:25;12.70;81.90
11246;DHT22;59870;50.106;8.580;2023-03-25T21:51:40;12.60;82.60
11246;DHT22;59870;50.106;8.580;2023-03-25T21:54:55;12.80;82.80
11246;DHT22;59870;50.106;8.580;2023-03-25T21:57:26;13.00;82.80
11246;DHT22;59870;50.106;8.580;2023-03-25T22:01:04;13.30;83.70
11246;DHT22;59870;50.106;8.580;2023-03-25T22:08:31;12.60;83.10
11246;DHT22;59870;50.106;8.580;2023-03-25T22:12:11;12.60;82.50
11246;DHT22;59870;50.106;8.580;2023-03-25T22:15:19;13.00;83.10
11246;DHT22;59870;50.106;8.580;2023-03-25T22:55:01;12.60;82.50
11246;DHT22;59870;50.106;8.580;2023-03-25T22:59:34;12.80;82.70
11246;DHT22;59870;50.106;8.580;2023-03-25T23:13:50;12.80;83.00
11246;DHT22;59870;50.106;8.580;2023-03-25T23:18:12;12.30;82.60
11246;DHT22;59870;50.106;8.580;2023-03-25T23:45:29;12.00;83.80
11246;DHT22;59870;50.106;8.580;2023-03-25T23:54:51;12.00;84.00
